sensor_id;sensor_type;location;lat;lon;timestamp;P1;durP1;ratioP1;P2;durP2;ratioP2
63406;SDS011;49543;45.892;10.838;2022-07-04T07:31:18;3.30;;;2.90;;
63406;SDS011;49543;45.892;10.838;2022-07-04T08:33:32;2.92;;;2.60;;
63406;SDS011;49543;45.892;10.838;2022-07-04T08:35:58;2.90;;;2.67;;
63406;SDS011;49543;45.892;10.838;2022-07-04T08:38:23;3.33;;;2.53;;
63406;SDS011;49543;45.892;10.838;2022-07-04T08:40:50;2.80;;;2.60;;
63406;SDS011;49543;45.892;10.838;2022-07-04T08:43:22;6.53;;;3.47;;
63406;SDS011;49543;45.892;10.838;2022-07-04T08:45:49;3.38;;;3.08;;
63406;SDS011;49543;45.892;10.838;2022-07-04T08:48:17;4.32;;;3.17;;
63406;SDS011;49543;45.892;10.838;2022-07-04T08:50:49;3.60;;;2.97;;
63406;SDS011;49543;45.892;10.838;2022-07-04T08:53:19;4.32;;;2.88;;
63406;SDS011;49543;45.892;10.838;2022-07-04T08:55:46;5.32;;;3.17;;
63406;SDS011;49543;45.892;10.838;2022-07-04T08:58:31;2.90;;;2.70;;
63406;SDS011;49543;45.892;10.838;2022-07-04T09:00:59;3.53;;;2.70;;
63406;SDS011;49543;45.892;10.838;2022-07-04T09:03:27;6.35;;;2.70;;
63406;SDS011;49543;45.892;10.838;2022-07-04T09:05:53;3.95;;;3.10;;
63406;SDS011;49543;45.892;10.838;2022-07-04T09:08:20;3.53;;;2.80;;
63406;SDS011;49543;45.892;10.838;2022-07-04T09:10:46;3.10;;;2.80;;
63406;SDS011;49543;45.892;10.838;2022-07-04T09:13:12;3.03;;;2.78;;
63406;SDS011;49543;45.892;10.838;2022-07-04T09:15:44;3.65;;;3.00;;
63406;SDS011;49543;45.892;10.838;2022-07-04T09:20:47;3.60;;;2.45;;
63406;SDS011;49543;45.892;10.838;2022-07-04T09:23:17;4.05;;;2.80;;
63406;SDS011;49543;45.892;10.838;2022-07-04T09:25:44;3.10;;;2.80;;
63406;SDS011;49543;45.892;10.838;2022-07-04T09:28:10;3.03;;;2.70;;
63406;SDS011;49543;45.892;10.838;2022-07-04T09:30:45;4.95;;;2.53;;
63406;SDS011;49543;45.892;10.838;2022-07-04T09:33:15;3.10;;;2.80;;
63406;SDS011;49543;45.892;10.838;2022-07-04T09:35:43;5.47;;;2.88;;
63406;SDS011;49543;45.892;10.838;2022-07-04T09:38:09;3.15;;;2.67;;
63406;SDS011;49543;45.892;10.838;2022-07-04T09:40:37;2.80;;;2.53;;
63406;SDS011;49543;45.892;10.838;2022-07-04T09:43:22;3.20;;;2.92;;
63406;SDS011;49543;45.892;10.838;2022-07-04T09:45:56;2.70;;;2.55;;
63406;SDS011;49543;45.892;10.838;2022-07-04T09:48:23;6.65;;;2.60;;
63406;SDS011;49543;45.892;10.838;2022-07-04T09:50:50;4.28;;;2.90;;
63406;SDS011;49543;45.892;10.838;2022-07-04T09:53:15;4.72;;;2.83;;
63406;SDS011;49543;45.892;10.838;2022-07-04T09:55:41;3.03;;;2.83;;
63406;SDS011;49543;45.892;10.838;2022-07-04T09:58:07;3.45;;;2.75;;
63406;SDS011;49543;45.892;10.838;2022-07-04T10:00:35;3.58;;;2.90;;
63406;SDS011;49543;45.892;10.838;2022-07-04T10:06:08;3.15;;;2.95;;
63406;SDS011;49543;45.892;10.838;2022-07-04T10:08:38;3.80;;;3.50;;
63406;SDS011;49543;45.892;10.838;2022-07-04T10:11:05;4.70;;;4.10;;
63406;SDS011;49543;45.892;10.838;2022-07-04T10:13:32;4.18;;;3.78;;
63406;SDS011;49543;45.892;10.838;2022-07-04T10:15:58;3.40;;;3.10;;
63406;SDS011;49543;45.892;10.838;2022-07-04T10:18:24;3.65;;;3.28;;
63406;SDS011;49543;45.892;10.838;2022-07-04T10:20:51;3.60;;;3.30;;
63406;SDS011;49543;45.892;10.838;2022-07-04T10:23:19;3.38;;;2.90;;
63406;SDS011;49543;45.892;10.838;2022-07-04T10:25:46;4.40;;;3.22;;
63406;SDS011;49543;45.892;10.838;2022-07-04T10:28:13;3.65;;;3.28;;
63406;SDS011;49543;45.892;10.838;2022-07-04T10:30:39;3.95;;;3.05;;
63406;SDS011;49543;45.892;10.838;2022-07-04T10:33:06;6.32;;;3.53;;
63406;SDS011;49543;45.892;10.838;2022-07-04T10:35:49;5.10;;;3.78;;
63406;SDS011;49543;45.892;10.838;2022-07-04T10:38:29;4.50;;;3.55;;
63406;SDS011;49543;45.892;10.838;2022-07-04T10:41:03;5.82;;;3.72;;
63406;SDS011;49543;45.892;10.838;2022-07-04T10:48:35;6.28;;;3.42;;
63406;SDS011;49543;45.892;10.838;2022-07-04T10:53:27;5.20;;;3.22;;
63406;SDS011;49543;45.892;10.838;2022-07-04T10:55:53;5.93;;;3.38;;
63406;SDS011;49543;45.892;10.838;2022-07-04T10:58:40;5.22;;;3.60;;
63406;SDS011;49543;45.892;10.838;2022-07-04T11:01:14;4.70;;;3.70;;
63406;SDS011;49543;45.892;10.838;2022-07-04T11:03:45;3.72;;;3.13;;
63406;SDS011;49543;45.892;10.838;2022-07-04T11:07:02;3.70;;;2.72;;
63406;SDS011;49543;45.892;10.838;2022-07-04T11:17:10;4.15;;;2.65;;
63406;SDS011;49543;45.892;10.838;2022-07-04T11:19:40;3.28;;;2.58;;
63406;SDS011;49543;45.892;10.838;2022-07-04T11:22:07;2.70;;;2.50;;
63406;SDS011;49543;45.892;10.838;2022-07-04T11:24:35;4.47;;;2.57;;
63406;SDS011;49543;45.892;10.838;2022-07-04T11:27:01;2.80;;;2.50;;
63406;SDS011;49543;45.892;10.838;2022-07-04T11:29:27;3.15;;;2.15;;
63406;SDS011;49543;45.892;10.838;2022-07-04T11:31:54;3.53;;;2.25;;
63406;SDS011;49543;45.892;10.838;2022-07-04T11:34:20;2.65;;;2.45;;
63406;SDS011;49543;45.892;10.838;2022-07-04T11:36:47;4.88;;;2.20;;
63406;SDS011;49543;45.892;10.838;2022-07-04T11:39:15;2.73;;;2.27;;
63406;SDS011;49543;45.892;10.838;2022-07-04T11:41:44;2.80;;;2.33;;
63406;SDS011;49543;45.892;10.838;2022-07-04T11:44:37;2.80;;;2.25;;
63406;SDS011;49543;45.892;10.838;2022-07-04T16:51:49;10.30;;;3.20;;
63406;SDS011;49543;45.892;10.838;2022-07-04T16:54:15;2.63;;;2.42;;
63406;SDS011;49543;45.892;10.838;2022-07-04T16:56:40;2.92;;;2.35;;
63406;SDS011;49543;45.892;10.838;2022-07-04T16:59:06;2.50;;;2.30;;
63406;SDS011;49543;45.892;10.838;2022-07-04T17:01:31;3.33;;;2.40;;
63406;SDS011;49543;45.892;10.838;2022-07-04T17:03:57;2.33;;;2.13;;
63406;SDS011;49543;45.892;10.838;2022-07-04T17:06:22;4.25;;;2.78;;
63406;SDS011;49543;45.892;10.838;2022-07-04T17:08:48;4.45;;;2.50;;
63406;SDS011;49543;45.892;10.838;2022-07-04T17:11:13;2.60;;;2.40;;
63406;SDS011;49543;45.892;10.838;2022-07-04T17:13:40;3.40;;;2.22;;
63406;SDS011;49543;45.892;10.838;2022-07-04T17:16:08;3.50;;;2.38;;
63406;SDS011;49543;45.892;10.838;2022-07-04T17:18:33;3.45;;;2.70;;
63406;SDS011;49543;45.892;10.838;2022-07-04T17:20:59;2.33;;;2.13;;
63406;SDS011;49543;45.892;10.838;2022-07-04T17:23:25;3.10;;;2.58;;
63406;SDS011;49543;45.892;10.838;2022-07-04T17:25:50;4.15;;;3.67;;
63406;SDS011;49543;45.892;10.838;2022-07-04T17:28:16;3.85;;;2.42;;
63406;SDS011;49543;45.892;10.838;2022-07-04T17:30:42;3.65;;;3.35;;
63406;SDS011;49543;45.892;10.838;2022-07-04T17:33:09;2.75;;;2.55;;
63406;SDS011;49543;45.892;10.838;2022-07-04T17:35:35;2.88;;;2.67;;
63406;SDS011;49543;45.892;10.838;2022-07-04T17:38:02;4.28;;;2.50;;
63406;SDS011;49543;45.892;10.838;2022-07-04T17:40:28;2.45;;;2.30;;
63406;SDS011;49543;45.892;10.838;2022-07-04T17:42:53;1.83;;;1.73;;
63406;SDS011;49543;45.892;10.838;2022-07-04T17:45:19;2.75;;;2.20;;
63406;SDS011;49543;45.892;10.838;2022-07-04T17:47:44;2.15;;;1.85;;
63406;SDS011;49543;45.892;10.838;2022-07-04T17:50:10;3.65;;;2.22;;
63406;SDS011;49543;45.892;10.838;2022-07-04T17:52:36;2.40;;;2.20;;
63406;SDS011;49543;45.892;10.838;2022-07-04T17:55:01;4.47;;;2.50;;
63406;SDS011;49543;45.892;10.838;2022-07-04T17:57:27;3.38;;;2.45;;
63406;SDS011;49543;45.892;10.838;2022-07-04T17:59:52;4.28;;;2.67;;
63406;SDS011;49543;45.892;10.838;2022-07-04T18:02:18;3.38;;;2.28;;
63406;SDS011;49543;45.892;10.838;2022-07-04T18:04:44;2.60;;;2.42;;
63406;SDS011;49543;45.892;10.838;2022-07-04T18:07:10;2.42;;;2.22;;
63406;SDS011;49543;45.892;10.838;2022-07-04T18:09:35;5.18;;;2.40;;
63406;SDS011;49543;45.892;10.838;2022-07-04T18:12:01;3.42;;;2.30;;
63406;SDS011;49543;45.892;10.838;2022-07-04T18:14:26;8.88;;;2.45;;
63406;SDS011;49543;45.892;10.838;2022-07-04T18:16:52;6.90;;;2.15;;
63406;SDS011;49543;45.892;10.838;2022-07-04T18:19:17;8.20;;;2.60;;
63406;SDS011;49543;45.892;10.838;2022-07-04T18:21:43;7.03;;;2.25;;
63406;SDS011;49543;45.892;10.838;2022-07-04T18:24:09;12.15;;;2.60;;
63406;SDS011;49543;45.892;10.838;2022-07-04T18:26:39;10.93;;;2.97;;
63406;SDS011;49543;45.892;10.838;2022-07-04T18:29:05;11.40;;;2.67;;
63406;SDS011;49543;45.892;10.838;2022-07-04T18:31:31;10.77;;;3.30;;
63406;SDS011;49543;45.892;10.838;2022-07-04T18:33:56;16.40;;;3.50;;
63406;SDS011;49543;45.892;10.838;2022-07-04T18:36:22;10.98;;;3.08;;
63406;SDS011;49543;45.892;10.838;2022-07-04T18:38:48;11.00;;;2.78;;
63406;SDS011;49543;45.892;10.838;2022-07-04T18:41:13;9.23;;;2.63;;
63406;SDS011;49543;45.892;10.838;2022-07-04T18:43:58;7.10;;;2.70;;
63406;SDS011;49543;45.892;10.838;2022-07-04T18:46:23;13.88;;;4.85;;
63406;SDS011;49543;45.892;10.838;2022-07-04T18:48:49;9.88;;;3.50;;
63406;SDS011;49543;45.892;10.838;2022-07-04T18:51:15;10.73;;;4.13;;
63406;SDS011;49543;45.892;10.838;2022-07-04T18:53:43;4.65;;;2.65;;
63406;SDS011;49543;45.892;10.838;2022-07-04T18:56:09;9.25;;;3.25;;
63406;SDS011;49543;45.892;10.838;2022-07-04T18:58:35;11.23;;;3.42;;
63406;SDS011;49543;45.892;10.838;2022-07-04T19:01:02;11.85;;;3.28;;
63406;SDS011;49543;45.892;10.838;2022-07-04T19:03:27;9.80;;;2.90;;
63406;SDS011;49543;45.892;10.838;2022-07-04T19:05:53;12.15;;;3.35;;
63406;SDS011;49543;45.892;10.838;2022-07-04T19:08:18;9.75;;;4.15;;
63406;SDS011;49543;45.892;10.838;2022-07-04T19:10:44;10.00;;;3.88;;
63406;SDS011;49543;45.892;10.838;2022-07-04T19:13:09;14.30;;;3.70;;
63406;SDS011;49543;45.892;10.838;2022-07-04T19:15:36;7.65;;;3.38;;
63406;SDS011;49543;45.892;10.838;2022-07-04T19:18:04;11.20;;;3.28;;
63406;SDS011;49543;45.892;10.838;2022-07-04T19:20:30;13.65;;;2.90;;
63406;SDS011;49543;45.892;10.838;2022-07-04T19:22:55;10.15;;;3.38;;
63406;SDS011;49543;45.892;10.838;2022-07-04T19:25:21;7.93;;;3.40;;
63406;SDS011;49543;45.892;10.838;2022-07-04T19:27:47;8.73;;;3.42;;
63406;SDS011;49543;45.892;10.838;2022-07-04T19:30:13;6.78;;;3.08;;
63406;SDS011;49543;45.892;10.838;2022-07-04T19:32:39;6.00;;;3.15;;
63406;SDS011;49543;45.892;10.838;2022-07-04T19:35:05;6.95;;;3.13;;
63406;SDS011;49543;45.892;10.838;2022-07-04T19:37:32;10.02;;;3.25;;
63406;SDS011;49543;45.892;10.838;2022-07-04T19:39:57;5.70;;;3.10;;
63406;SDS011;49543;45.892;10.838;2022-07-04T19:42:23;8.73;;;2.65;;
63406;SDS011;49543;45.892;10.838;2022-07-04T19:44:49;3.63;;;2.83;;
63406;SDS011;49543;45.892;10.838;2022-07-04T19:47:16;6.15;;;2.92;;
63406;SDS011;49543;45.892;10.838;2022-07-04T19:49:46;4.28;;;2.83;;
63406;SDS011;49543;45.892;10.838;2022-07-04T19:52:12;5.80;;;2.78;;
63406;SDS011;49543;45.892;10.838;2022-07-04T19:54:56;4.93;;;2.92;;
63406;SDS011;49543;45.892;10.838;2022-07-04T19:57:36;5.80;;;3.00;;
63406;SDS011;49543;45.892;10.838;2022-07-04T20:00:06;5.05;;;2.90;;
63406;SDS011;49543;45.892;10.838;2022-07-04T20:02:33;8.75;;;3.88;;
63406;SDS011;49543;45.892;10.838;2022-07-04T20:04:59;6.15;;;3.92;;
63406;SDS011;49543;45.892;10.838;2022-07-04T20:07:25;7.28;;;3.92;;
63406;SDS011;49543;45.892;10.838;2022-07-04T20:09:51;5.38;;;3.50;;
63406;SDS011;49543;45.892;10.838;2022-07-04T20:12:17;4.68;;;3.05;;
63406;SDS011;49543;45.892;10.838;2022-07-04T20:14:44;5.30;;;2.90;;
63406;SDS011;49543;45.892;10.838;2022-07-04T20:17:24;7.18;;;3.10;;
63406;SDS011;49543;45.892;10.838;2022-07-04T20:19:54;4.97;;;3.00;;
63406;SDS011;49543;45.892;10.838;2022-07-04T20:22:21;6.80;;;3.38;;
63406;SDS011;49543;45.892;10.838;2022-07-04T20:24:48;6.28;;;2.88;;
63406;SDS011;49543;45.892;10.838;2022-07-04T20:27:16;5.50;;;2.95;;
63406;SDS011;49543;45.892;10.838;2022-07-04T20:29:43;5.55;;;3.33;;
63406;SDS011;49543;45.892;10.838;2022-07-04T20:32:09;3.13;;;2.83;;
63406;SDS011;49543;45.892;10.838;2022-07-04T20:34:36;4.88;;;3.00;;
63406;SDS011;49543;45.892;10.838;2022-07-04T20:37:02;5.78;;;2.92;;
63406;SDS011;49543;45.892;10.838;2022-07-04T20:39:28;8.35;;;2.97;;
63406;SDS011;49543;45.892;10.838;2022-07-04T20:41:54;4.93;;;2.95;;
63406;SDS011;49543;45.892;10.838;2022-07-04T20:44:20;5.22;;;2.95;;
63406;SDS011;49543;45.892;10.838;2022-07-04T20:46:46;5.35;;;3.33;;
63406;SDS011;49543;45.892;10.838;2022-07-04T20:49:12;4.38;;;2.88;;
63406;SDS011;49543;45.892;10.838;2022-07-04T20:51:37;4.95;;;3.10;;
63406;SDS011;49543;45.892;10.838;2022-07-04T20:54:07;3.38;;;3.00;;
63406;SDS011;49543;45.892;10.838;2022-07-04T20:56:33;4.40;;;3.03;;
63406;SDS011;49543;45.892;10.838;2022-07-04T20:58:58;6.18;;;3.78;;
63406;SDS011;49543;45.892;10.838;2022-07-04T21:01:23;5.75;;;3.30;;
63406;SDS011;49543;45.892;10.838;2022-07-04T21:03:49;4.25;;;3.03;;
63406;SDS011;49543;45.892;10.838;2022-07-04T21:06:14;5.13;;;3.17;;
63406;SDS011;49543;45.892;10.838;2022-07-04T21:08:40;3.58;;;3.10;;
63406;SDS011;49543;45.892;10.838;2022-07-04T21:11:05;4.13;;;2.80;;
63406;SDS011;49543;45.892;10.838;2022-07-04T21:13:31;5.95;;;3.20;;
63406;SDS011;49543;45.892;10.838;2022-07-04T21:15:56;3.78;;;3.00;;
63406;SDS011;49543;45.892;10.838;2022-07-04T21:18:21;4.13;;;2.67;;
